Yankee — WDF4108 — position and weather

sailwx.info

Track history (hours):
 
Tides and Currents Weather Stations Pressure Air Temp Water Temp Dewpoint Dewpoint Depression Visibility Wind Speed Wind Dir Waves Ship Positions

Yankee

Owner: United New York & New Jersey Sandy Hook Pilots Association, Staten Island, NY. More information available from US FCC via Universal Licensing System and Coast Guard Vessel Documentation Center.

Last reported at 2017-Dec-17 05:20 UTC. Time now 2017-Dec-17 10:14 UTC.
Position N 40°37' W 074°03'.

Length 17 m; draft 2.6 m.

Type: Pilot. MMSI: 367448070.

Date/timePositionNaut miles runAvg speedWind from/ knotsBaromVisibWave heightAir tempDewpointWater temp
2017-Dec-17 05:20N 40°37' W 074°03'1114.9
2017-Dec-17 04:36N 40°29' W 073°53'323.3
2017-Dec-17 04:27N 40°31' W 073°57'8 1.1
2017-Dec-16 20:45N 40°37' W 074°04'522.1
2017-Dec-16 20:30N 40°33' W 073°60'6 7.4
2017-Dec-16 19:39N 40°29' W 073°53'522.7
2017-Dec-16 19:26N 40°32' W 073°59'6 0.7
2017-Dec-16 11:50N 40°36' W 074°03'5 4.4
2017-Dec-16 10:36N 40°32' W 073°59'221.3
2017-Dec-16 10:30N 40°34' W 074°01'3 0.3
2017-Dec-16 02:18N 40°36' W 074°02'2 0.2
2017-Dec-15 19:22N 40°37' W 074°04'7 4.9
2017-Dec-15 17:59N 40°31' W 073°59'714.1
2017-Dec-15 17:30N 40°37' W 074°04'0 0.0
2017-Dec-15 17:00N 40°37' W 074°04'1 0.1
2017-Dec-15 04:17N 40°37' W 074°03'0 0.0
2017-Dec-14 16:30N 40°37' W 074°03'1 0.2
2017-Dec-14 09:59N 40°38' W 074°04'7 4.3
2017-Dec-14 08:22N 40°32' W 073°59'6 0.5
2017-Dec-13 21:33N 40°37' W 074°03'220.8
2017-Dec-13 21:28N 40°35' W 074°02'4 3.2
2017-Dec-13 20:17N 40°32' W 073°59'5 1.5
2017-Dec-13 16:37N 40°36' W 074°03'219.9
2017-Dec-13 16:30N 40°34' W 074°02'3 2.5
2017-Dec-13 15:12N 40°32' W 073°59'421.7
2017-Dec-13 15:00N 40°35' W 074°02'1 0.1
2017-Dec-13 09:14N 40°36' W 074°03'1 0.2
2017-Dec-13 04:12N 40°37' W 074°03'419.6
2017-Dec-13 04:00N 40°34' W 074°01'4 5.0
2017-Dec-13 03:16N 40°31' W 073°57'623.6
2017-Dec-13 03:00N 40°36' W 074°02'1 0.2
2017-Dec-12 22:36N 40°37' W 074°03'221.5
2017-Dec-12 22:30N 40°35' W 074°02'4 4.5
2017-Dec-12 21:34N 40°32' W 073°59'222.6
2017-Dec-12 21:29N 40°33' W 074°00'5 2.5
2017-Dec-12 19:38N 40°37' W 074°03'322.2
2017-Dec-12 19:30N 40°34' W 074°02'3 2.3
2017-Dec-12 18:08N 40°32' W 073°59'321.8
2017-Dec-12 18:00N 40°34' W 074°01'4 0.7
2017-Dec-12 11:59N 40°37' W 074°04'7 4.6
2017-Dec-12 10:35N 40°32' W 073°59'219.6
2017-Dec-12 10:30N 40°33' W 074°00'4 0.6
2017-Dec-12 04:08N 40°36' W 074°03'321.6
2017-Dec-12 04:00N 40°34' W 074°01'5 7.6
2017-Dec-12 03:24N 40°31' W 073°57'7 2.5
2017-Dec-12 00:30N 40°36' W 074°03'7 8.2
2017-Dec-11 23:36N 40°31' W 073°57'324.1
2017-Dec-11 23:30N 40°32' W 073°59'6 0.9
2017-Dec-11 17:17N 40°37' W 074°04'6 6.3
2017-Dec-11 16:16N 40°32' W 073°59'622.2
2017-Dec-11 16:00N 40°36' W 074°03'0 0.1
2017-Dec-11 11:29N 40°37' W 074°03'6 6.3
2017-Dec-11 10:30N 40°32' W 073°59'6 1.1
2017-Dec-11 05:10N 40°36' W 074°03'423.4
2017-Dec-11 05:00N 40°33' W 073°60'2 3.5
2017-Dec-11 04:28N 40°32' W 073°58'6 0.5
2017-Dec-10 16:42N 40°37' W 074°03'6 5.6
2017-Dec-10 15:37N 40°32' W 073°57'320.9
2017-Dec-10 15:29N 40°34' W 073°60'4 1.4
2017-Dec-10 12:54N 40°37' W 074°03'8 7.3
2017-Dec-10 11:50N 40°31' W 073°57'721.0
2017-Dec-10 11:30N 40°36' W 074°03'1 0.2
2017-Dec-10 05:30N 40°37' W 074°03'6 4.7
2017-Dec-10 04:08N 40°32' W 073°58'321.5
2017-Dec-10 03:59N 40°34' W 074°01'3 0.4
2017-Dec-09 19:52N 40°37' W 074°03'8 7.6
2017-Dec-09 18:52N 40°31' W 073°57'821.3
2017-Dec-09 18:30N 40°37' W 074°04'0 0.0
2017-Dec-09 17:59N 40°37' W 074°04'1 0.1
2017-Dec-09 12:30N 40°37' W 074°03'1222.4
2017-Dec-09 11:58N 40°29' W 073°52'4 8.5
2017-Dec-09 11:28N 40°31' W 073°57'8 1.2
2017-Dec-09 04:49N 40°37' W 074°03'11 7.6
2017-Dec-09 03:18N 40°29' W 073°52'722.6
2017-Dec-09 02:59N 40°33' W 073°60'5 0.7
2017-Dec-08 19:40N 40°37' W 074°04'321.7
2017-Dec-08 19:31N 40°41' W 074°04'4 0.5
2017-Dec-08 11:58N 40°37' W 074°03'1116.2
2017-Dec-08 11:16N 40°29' W 073°53'622.8
2017-Dec-08 11:00N 40°32' W 073°59'6 0.8
2017-Dec-08 04:09N 40°37' W 074°04'319.6
2017-Dec-08 04:00N 40°35' W 074°02'5 6.6
2017-Dec-08 03:15N 40°31' W 073°57'621.5
2017-Dec-08 02:59N 40°35' W 074°02'2 0.2
2017-Dec-07 19:11N 40°37' W 074°03'420.1
2017-Dec-07 19:00N 40°34' W 074°01'3 3.4
2017-Dec-07 18:06N 40°31' W 073°59'223.5
2017-Dec-07 18:00N 40°33' W 074°01'4 1.6
2017-Dec-07 15:39N 40°36' W 074°03'422.2
2017-Dec-07 15:27N 40°33' W 074°00'2 1.3
2017-Dec-07 14:09N 40°31' W 073°59'213.4
2017-Dec-07 14:00N 40°33' W 074°00'5 2.1
2017-Dec-07 11:34N 40°37' W 074°04'115.3
2017-Dec-07 11:29N 40°36' W 074°03'1015.8
2017-Dec-07 10:50N 40°29' W 073°52'2 5.8
2017-Dec-07 10:30N 40°30' W 073°55'  
Track history (hours):
 
Tides and Currents Weather Stations Pressure Air Temp Water Temp Dewpoint Dewpoint Depression Visibility Wind Speed Wind Dir Waves Ship Positions

Yankee

Owner: United New York & New Jersey Sandy Hook Pilots Association, Staten Island, NY. More information available from US FCC via Universal Licensing System and Coast Guard Vessel Documentation Center.

Last reported at 2017-Dec-17 05:20 UTC. Time now 2017-Dec-17 10:14 UTC.
Position N 40°37' W 074°03'.

Length 17 m; draft 2.6 m.

Type: Pilot. MMSI: 367448070.

Date/timePositionNaut miles runAvg speedWind from/ knotsBaromVisibWave heightAir tempDewpointWater temp
2017-Dec-17 05:20N 40°37' W 074°03'1114.9
2017-Dec-17 04:36N 40°29' W 073°53'323.3
2017-Dec-17 04:27N 40°31' W 073°57'8 1.1
2017-Dec-16 20:45N 40°37' W 074°04'522.1
2017-Dec-16 20:30N 40°33' W 073°60'6 7.4
2017-Dec-16 19:39N 40°29' W 073°53'522.7
2017-Dec-16 19:26N 40°32' W 073°59'6 0.7
2017-Dec-16 11:50N 40°36' W 074°03'5 4.4
2017-Dec-16 10:36N 40°32' W 073°59'221.3
2017-Dec-16 10:30N 40°34' W 074°01'3 0.3
2017-Dec-16 02:18N 40°36' W 074°02'2 0.2
2017-Dec-15 19:22N 40°37' W 074°04'7 4.9
2017-Dec-15 17:59N 40°31' W 073°59'714.1
2017-Dec-15 17:30N 40°37' W 074°04'0 0.0
2017-Dec-15 17:00N 40°37' W 074°04'1 0.1
2017-Dec-15 04:17N 40°37' W 074°03'0 0.0
2017-Dec-14 16:30N 40°37' W 074°03'1 0.2
2017-Dec-14 09:59N 40°38' W 074°04'7 4.3
2017-Dec-14 08:22N 40°32' W 073°59'6 0.5
2017-Dec-13 21:33N 40°37' W 074°03'220.8
2017-Dec-13 21:28N 40°35' W 074°02'4 3.2
2017-Dec-13 20:17N 40°32' W 073°59'5 1.5
2017-Dec-13 16:37N 40°36' W 074°03'219.9
2017-Dec-13 16:30N 40°34' W 074°02'3 2.5
2017-Dec-13 15:12N 40°32' W 073°59'421.7
2017-Dec-13 15:00N 40°35' W 074°02'1 0.1
2017-Dec-13 09:14N 40°36' W 074°03'1 0.2
2017-Dec-13 04:12N 40°37' W 074°03'419.6
2017-Dec-13 04:00N 40°34' W 074°01'4 5.0
2017-Dec-13 03:16N 40°31' W 073°57'623.6
2017-Dec-13 03:00N 40°36' W 074°02'1 0.2
2017-Dec-12 22:36N 40°37' W 074°03'221.5
2017-Dec-12 22:30N 40°35' W 074°02'4 4.5
2017-Dec-12 21:34N 40°32' W 073°59'222.6
2017-Dec-12 21:29N 40°33' W 074°00'5 2.5
2017-Dec-12 19:38N 40°37' W 074°03'322.2
2017-Dec-12 19:30N 40°34' W 074°02'3 2.3
2017-Dec-12 18:08N 40°32' W 073°59'321.8
2017-Dec-12 18:00N 40°34' W 074°01'4 0.7
2017-Dec-12 11:59N 40°37' W 074°04'7 4.6
2017-Dec-12 10:35N 40°32' W 073°59'219.6
2017-Dec-12 10:30N 40°33' W 074°00'4 0.6
2017-Dec-12 04:08N 40°36' W 074°03'321.6
2017-Dec-12 04:00N 40°34' W 074°01'5 7.6
2017-Dec-12 03:24N 40°31' W 073°57'7 2.5
2017-Dec-12 00:30N 40°36' W 074°03'7 8.2
2017-Dec-11 23:36N 40°31' W 073°57'324.1
2017-Dec-11 23:30N 40°32' W 073°59'6 0.9
2017-Dec-11 17:17N 40°37' W 074°04'6 6.3
2017-Dec-11 16:16N 40°32' W 073°59'622.2
2017-Dec-11 16:00N 40°36' W 074°03'0 0.1
2017-Dec-11 11:29N 40°37' W 074°03'6 6.3
2017-Dec-11 10:30N 40°32' W 073°59'6 1.1
2017-Dec-11 05:10N 40°36' W 074°03'423.4
2017-Dec-11 05:00N 40°33' W 073°60'2 3.5
2017-Dec-11 04:28N 40°32' W 073°58'6 0.5
2017-Dec-10 16:42N 40°37' W 074°03'6 5.6
2017-Dec-10 15:37N 40°32' W 073°57'320.9
2017-Dec-10 15:29N 40°34' W 073°60'4 1.4
2017-Dec-10 12:54N 40°37' W 074°03'8 7.3
2017-Dec-10 11:50N 40°31' W 073°57'721.0
2017-Dec-10 11:30N 40°36' W 074°03'1 0.2
2017-Dec-10 05:30N 40°37' W 074°03'6 4.7
2017-Dec-10 04:08N 40°32' W 073°58'321.5
2017-Dec-10 03:59N 40°34' W 074°01'3 0.4
2017-Dec-09 19:52N 40°37' W 074°03'8 7.6
2017-Dec-09 18:52N 40°31' W 073°57'821.3
2017-Dec-09 18:30N 40°37' W 074°04'0 0.0
2017-Dec-09 17:59N 40°37' W 074°04'1 0.1
2017-Dec-09 12:30N 40°37' W 074°03'1222.4
2017-Dec-09 11:58N 40°29' W 073°52'4 8.5
2017-Dec-09 11:28N 40°31' W 073°57'8 1.2
2017-Dec-09 04:49N 40°37' W 074°03'11 7.6
2017-Dec-09 03:18N 40°29' W 073°52'722.6
2017-Dec-09 02:59N 40°33' W 073°60'5 0.7
2017-Dec-08 19:40N 40°37' W 074°04'321.7
2017-Dec-08 19:31N 40°41' W 074°04'4 0.5
2017-Dec-08 11:58N 40°37' W 074°03'1116.2
2017-Dec-08 11:16N 40°29' W 073°53'622.8
2017-Dec-08 11:00N 40°32' W 073°59'6 0.8
2017-Dec-08 04:09N 40°37' W 074°04'319.6
2017-Dec-08 04:00N 40°35' W 074°02'5 6.6
2017-Dec-08 03:15N 40°31' W 073°57'621.5
2017-Dec-08 02:59N 40°35' W 074°02'2 0.2
2017-Dec-07 19:11N 40°37' W 074°03'420.1
2017-Dec-07 19:00N 40°34' W 074°01'3 3.4
2017-Dec-07 18:06N 40°31' W 073°59'223.5
2017-Dec-07 18:00N 40°33' W 074°01'4 1.6
2017-Dec-07 15:39N 40°36' W 074°03'422.2
2017-Dec-07 15:27N 40°33' W 074°00'2 1.3
2017-Dec-07 14:09N 40°31' W 073°59'213.4
2017-Dec-07 14:00N 40°33' W 074°00'5 2.1
2017-Dec-07 11:34N 40°37' W 074°04'115.3
2017-Dec-07 11:29N 40°36' W 074°03'1015.8
2017-Dec-07 10:50N 40°29' W 073°52'2 5.8
2017-Dec-07 10:30N 40°30' W 073°55'  

Dump ship's entire track history